New Limerick, Maine
Current Conditions -  °F | °C
As of 11:53 AM on Friday 24 Oct 2014 (Local Time) from KHUL Reporting Station
Overcast Overcast  
Wind Chill: 36°   Ceiling: 500
Heat Index: 43°   Visibility: 10mi
Dew Point: 41°   Wind: 13mph
Humidity: 93%   Direction: 20°NNE
Pressure: 29.7"   Gusts: NA
Location:  46.1°N, 67.96°W
Report Text: KHUL 241553Z AUTO 02011KT 10SM OVC005 06/05 A2970 RMK AO2 RAE47 CIG 004V008 SLP060 P0001 T00610050
Loading
Personal Weather Stations






























Interactive Weather Map
Tropical Storm Tracking
New forecast layout! Learn more

10-Day Weather Forecast

Advertisements
Track Severe Weather on mobile